sensor_id;sensor_type;location;lat;lon;timestamp;P1;durP1;ratioP1;P2;durP2;ratioP2
75358;SDS011;64046;51.978;5.934;2023-02-11T00:01:47;17.80;;;9.52;;
75358;SDS011;64046;51.978;5.934;2023-02-11T00:04:16;21.63;;;9.45;;
75358;SDS011;64046;51.978;5.934;2023-02-11T00:06:45;20.00;;;8.65;;
75358;SDS011;64046;51.978;5.934;2023-02-11T00:09:14;24.70;;;8.70;;
75358;SDS011;64046;51.978;5.934;2023-02-11T00:11:44;18.15;;;8.07;;
75358;SDS011;64046;51.978;5.934;2023-02-11T00:14:13;21.17;;;7.72;;
75358;SDS011;64046;51.978;5.934;2023-02-11T00:16:42;13.85;;;7.07;;
75358;SDS011;64046;51.978;5.934;2023-02-11T00:19:14;22.20;;;7.50;;
75358;SDS011;64046;51.978;5.934;2023-02-11T00:21:43;15.10;;;6.65;;
75358;SDS011;64046;51.978;5.934;2023-02-11T00:24:12;22.40;;;7.95;;
75358;SDS011;64046;51.978;5.934;2023-02-11T00:26:42;26.30;;;7.57;;
75358;SDS011;64046;51.978;5.934;2023-02-11T00:29:11;18.52;;;6.97;;
75358;SDS011;64046;51.978;5.934;2023-02-11T00:31:40;25.02;;;8.55;;
75358;SDS011;64046;51.978;5.934;2023-02-11T00:34:09;18.42;;;6.68;;
75358;SDS011;64046;51.978;5.934;2023-02-11T00:36:41;17.67;;;6.78;;
75358;SDS011;64046;51.978;5.934;2023-02-11T00:39:10;22.85;;;7.68;;
75358;SDS011;64046;51.978;5.934;2023-02-11T00:41:40;19.58;;;7.03;;
75358;SDS011;64046;51.978;5.934;2023-02-11T00:44:12;17.55;;;6.93;;
75358;SDS011;64046;51.978;5.934;2023-02-11T00:46:41;14.48;;;6.72;;
75358;SDS011;64046;51.978;5.934;2023-02-11T00:49:10;16.20;;;5.72;;
75358;SDS011;64046;51.978;5.934;2023-02-11T00:51:43;21.15;;;5.70;;
75358;SDS011;64046;51.978;5.934;2023-02-11T00:54:12;15.20;;;5.72;;
75358;SDS011;64046;51.978;5.934;2023-02-11T00:56:42;17.23;;;6.80;;
75358;SDS011;64046;51.978;5.934;2023-02-11T00:59:11;24.58;;;7.57;;
75358;SDS011;64046;51.978;5.934;2023-02-11T01:01:43;21.08;;;7.13;;
75358;SDS011;64046;51.978;5.934;2023-02-11T01:04:12;17.00;;;6.28;;
75358;SDS011;64046;51.978;5.934;2023-02-11T01:06:44;16.38;;;6.63;;
75358;SDS011;64046;51.978;5.934;2023-02-11T01:09:14;25.08;;;6.13;;
75358;SDS011;64046;51.978;5.934;2023-02-11T01:11:44;21.05;;;5.90;;
75358;SDS011;64046;51.978;5.934;2023-02-11T01:14:13;25.45;;;6.68;;
75358;SDS011;64046;51.978;5.934;2023-02-11T01:16:42;22.05;;;6.40;;
75358;SDS011;64046;51.978;5.934;2023-02-11T01:19:12;19.90;;;6.07;;
75358;SDS011;64046;51.978;5.934;2023-02-11T01:21:47;19.90;;;6.75;;
75358;SDS011;64046;51.978;5.934;2023-02-11T01:24:20;13.45;;;5.30;;
75358;SDS011;64046;51.978;5.934;2023-02-11T01:26:49;26.40;;;6.40;;
75358;SDS011;64046;51.978;5.934;2023-02-11T01:29:18;20.38;;;7.07;;
75358;SDS011;64046;51.978;5.934;2023-02-11T01:31:47;15.55;;;5.93;;
75358;SDS011;64046;51.978;5.934;2023-02-11T01:34:17;14.75;;;5.78;;
75358;SDS011;64046;51.978;5.934;2023-02-11T01:36:48;15.55;;;6.00;;
75358;SDS011;64046;51.978;5.934;2023-02-11T01:39:18;15.27;;;5.38;;
75358;SDS011;64046;51.978;5.934;2023-02-11T01:41:47;22.05;;;6.88;;
75358;SDS011;64046;51.978;5.934;2023-02-11T01:44:26;20.63;;;6.97;;
75358;SDS011;64046;51.978;5.934;2023-02-11T01:46:57;20.92;;;5.93;;
75358;SDS011;64046;51.978;5.934;2023-02-11T01:49:30;19.77;;;6.57;;
75358;SDS011;64046;51.978;5.934;2023-02-11T01:52:04;25.80;;;7.10;;
75358;SDS011;64046;51.978;5.934;2023-02-11T01:54:38;19.45;;;5.97;;
75358;SDS011;64046;51.978;5.934;2023-02-11T01:57:24;17.30;;;6.55;;
75358;SDS011;64046;51.978;5.934;2023-02-11T01:59:59;17.80;;;5.68;;
75358;SDS011;64046;51.978;5.934;2023-02-11T02:02:41;18.10;;;6.22;;
75358;SDS011;64046;51.978;5.934;2023-02-11T02:05:19;21.45;;;6.47;;
75358;SDS011;64046;51.978;5.934;2023-02-11T02:07:58;19.40;;;6.75;;
75358;SDS011;64046;51.978;5.934;2023-02-11T02:10:38;17.45;;;5.97;;
75358;SDS011;64046;51.978;5.934;2023-02-11T02:13:11;17.58;;;5.85;;
75358;SDS011;64046;51.978;5.934;2023-02-11T02:15:40;15.15;;;5.25;;
75358;SDS011;64046;51.978;5.934;2023-02-11T02:18:23;16.60;;;5.78;;
75358;SDS011;64046;51.978;5.934;2023-02-11T02:21:21;20.95;;;7.03;;
75358;SDS011;64046;51.978;5.934;2023-02-11T02:27:17;21.63;;;5.82;;
75358;SDS011;64046;51.978;5.934;2023-02-11T02:30:04;20.25;;;6.60;;
75358;SDS011;64046;51.978;5.934;2023-02-11T02:33:01;17.58;;;6.13;;
75358;SDS011;64046;51.978;5.934;2023-02-11T02:35:41;22.65;;;5.63;;
75358;SDS011;64046;51.978;5.934;2023-02-11T02:38:15;17.17;;;6.63;;
75358;SDS011;64046;51.978;5.934;2023-02-11T02:40:52;19.50;;;5.63;;
75358;SDS011;64046;51.978;5.934;2023-02-11T02:43:25;18.75;;;5.35;;
75358;SDS011;64046;51.978;5.934;2023-02-11T02:46:08;17.77;;;5.47;;
75358;SDS011;64046;51.978;5.934;2023-02-11T02:48:44;25.38;;;5.88;;
75358;SDS011;64046;51.978;5.934;2023-02-11T02:51:16;13.93;;;5.47;;
75358;SDS011;64046;51.978;5.934;2023-02-11T02:53:57;15.27;;;4.63;;
75358;SDS011;64046;51.978;5.934;2023-02-11T02:56:37;16.42;;;5.45;;
75358;SDS011;64046;51.978;5.934;2023-02-11T02:59:16;25.92;;;6.85;;
75358;SDS011;64046;51.978;5.934;2023-02-11T03:01:56;15.15;;;4.47;;
75358;SDS011;64046;51.978;5.934;2023-02-11T03:04:36;20.17;;;5.95;;
75358;SDS011;64046;51.978;5.934;2023-02-11T03:07:14;22.13;;;5.97;;
75358;SDS011;64046;51.978;5.934;2023-02-11T03:09:52;13.23;;;5.18;;
75358;SDS011;64046;51.978;5.934;2023-02-11T03:12:25;23.35;;;6.10;;
75358;SDS011;64046;51.978;5.934;2023-02-11T03:14:58;17.83;;;5.53;;
75358;SDS011;64046;51.978;5.934;2023-02-11T03:17:29;27.60;;;6.75;;
75358;SDS011;64046;51.978;5.934;2023-02-11T03:20:04;16.33;;;5.32;;
75358;SDS011;64046;51.978;5.934;2023-02-11T03:22:39;23.85;;;6.07;;
75358;SDS011;64046;51.978;5.934;2023-02-11T03:25:14;14.50;;;5.50;;
75358;SDS011;64046;51.978;5.934;2023-02-11T03:27:45;19.65;;;7.20;;
75358;SDS011;64046;51.978;5.934;2023-02-11T03:30:21;22.70;;;7.20;;
75358;SDS011;64046;51.978;5.934;2023-02-11T03:32:55;22.20;;;6.75;;
75358;SDS011;64046;51.978;5.934;2023-02-11T03:35:31;16.00;;;5.45;;
75358;SDS011;64046;51.978;5.934;2023-02-11T03:38:04;25.23;;;6.93;;
75358;SDS011;64046;51.978;5.934;2023-02-11T03:40:37;11.30;;;5.93;;
75358;SDS011;64046;51.978;5.934;2023-02-11T03:43:11;18.60;;;6.90;;
75358;SDS011;64046;51.978;5.934;2023-02-11T03:45:46;29.50;;;7.63;;
75358;SDS011;64046;51.978;5.934;2023-02-11T03:48:18;21.95;;;6.00;;
75358;SDS011;64046;51.978;5.934;2023-02-11T03:50:55;16.92;;;6.65;;
75358;SDS011;64046;51.978;5.934;2023-02-11T03:53:27;19.35;;;6.22;;
75358;SDS011;64046;51.978;5.934;2023-02-11T03:55:56;21.33;;;6.43;;
75358;SDS011;64046;51.978;5.934;2023-02-11T03:58:30;22.63;;;6.53;;
75358;SDS011;64046;51.978;5.934;2023-02-11T04:01:00;16.77;;;6.30;;
75358;SDS011;64046;51.978;5.934;2023-02-11T04:03:30;20.63;;;6.03;;
75358;SDS011;64046;51.978;5.934;2023-02-11T04:06:01;24.75;;;7.97;;
75358;SDS011;64046;51.978;5.934;2023-02-11T04:08:31;23.52;;;7.90;;
75358;SDS011;64046;51.978;5.934;2023-02-11T04:11:00;14.57;;;5.60;;
75358;SDS011;64046;51.978;5.934;2023-02-11T04:13:29;17.25;;;6.75;;
75358;SDS011;64046;51.978;5.934;2023-02-11T04:15:59;19.52;;;7.93;;
75358;SDS011;64046;51.978;5.934;2023-02-11T04:18:28;17.90;;;7.38;;
75358;SDS011;64046;51.978;5.934;2023-02-11T04:20:57;16.45;;;6.80;;
75358;SDS011;64046;51.978;5.934;2023-02-11T04:23:29;19.42;;;6.68;;
75358;SDS011;64046;51.978;5.934;2023-02-11T04:25:58;25.98;;;7.45;;
75358;SDS011;64046;51.978;5.934;2023-02-11T04:28:27;24.75;;;8.73;;
75358;SDS011;64046;51.978;5.934;2023-02-11T04:30:56;20.58;;;7.72;;
75358;SDS011;64046;51.978;5.934;2023-02-11T04:33:25;28.88;;;7.53;;
75358;SDS011;64046;51.978;5.934;2023-02-11T04:35:55;19.77;;;7.53;;
75358;SDS011;64046;51.978;5.934;2023-02-11T04:38:24;24.63;;;8.77;;
75358;SDS011;64046;51.978;5.934;2023-02-11T04:40:56;20.58;;;7.72;;
75358;SDS011;64046;51.978;5.934;2023-02-11T04:43:25;25.73;;;8.55;;
75358;SDS011;64046;51.978;5.934;2023-02-11T04:45:55;17.60;;;7.30;;
75358;SDS011;64046;51.978;5.934;2023-02-11T04:48:25;14.80;;;6.75;;
75358;SDS011;64046;51.978;5.934;2023-02-11T04:50:55;24.77;;;6.85;;
75358;SDS011;64046;51.978;5.934;2023-02-11T04:53:24;20.50;;;6.90;;
75358;SDS011;64046;51.978;5.934;2023-02-11T04:55:56;16.88;;;6.93;;
75358;SDS011;64046;51.978;5.934;2023-02-11T04:58:25;19.45;;;7.30;;
75358;SDS011;64046;51.978;5.934;2023-02-11T05:00:54;20.52;;;8.30;;
75358;SDS011;64046;51.978;5.934;2023-02-11T05:03:23;21.77;;;7.63;;
75358;SDS011;64046;51.978;5.934;2023-02-11T05:05:53;15.88;;;7.18;;
75358;SDS011;64046;51.978;5.934;2023-02-11T05:08:22;18.65;;;7.38;;
75358;SDS011;64046;51.978;5.934;2023-02-11T05:10:51;20.33;;;7.40;;
75358;SDS011;64046;51.978;5.934;2023-02-11T05:13:23;25.50;;;8.90;;
75358;SDS011;64046;51.978;5.934;2023-02-11T05:15:52;21.88;;;8.45;;
75358;SDS011;64046;51.978;5.934;2023-02-11T05:18:22;18.38;;;7.85;;
75358;SDS011;64046;51.978;5.934;2023-02-11T05:20:51;21.73;;;7.18;;
75358;SDS011;64046;51.978;5.934;2023-02-11T05:23:20;17.00;;;8.25;;
75358;SDS011;64046;51.978;5.934;2023-02-11T05:25:50;20.52;;;8.18;;
75358;SDS011;64046;51.978;5.934;2023-02-11T05:28:19;22.50;;;8.88;;
75358;SDS011;64046;51.978;5.934;2023-02-11T05:30:50;21.40;;;9.27;;
75358;SDS011;64046;51.978;5.934;2023-02-11T05:33:20;19.10;;;7.53;;
75358;SDS011;64046;51.978;5.934;2023-02-11T05:35:49;18.73;;;7.47;;
75358;SDS011;64046;51.978;5.934;2023-02-11T05:38:18;22.23;;;8.05;;
75358;SDS011;64046;51.978;5.934;2023-02-11T05:40:47;23.98;;;8.43;;
75358;SDS011;64046;51.978;5.934;2023-02-11T05:43:17;26.83;;;8.25;;
75358;SDS011;64046;51.978;5.934;2023-02-11T05:45:46;27.73;;;10.45;;
75358;SDS011;64046;51.978;5.934;2023-02-11T05:48:18;22.55;;;9.07;;
75358;SDS011;64046;51.978;5.934;2023-02-11T05:50:48;30.35;;;8.07;;
75358;SDS011;64046;51.978;5.934;2023-02-11T05:53:17;25.48;;;8.82;;
75358;SDS011;64046;51.978;5.934;2023-02-11T05:55:46;20.58;;;8.40;;
75358;SDS011;64046;51.978;5.934;2023-02-11T05:58:16;21.05;;;8.32;;
75358;SDS011;64046;51.978;5.934;2023-02-11T06:00:45;19.98;;;8.05;;
75358;SDS011;64046;51.978;5.934;2023-02-11T06:03:14;24.30;;;9.93;;
75358;SDS011;64046;51.978;5.934;2023-02-11T06:05:46;21.45;;;9.93;;
75358;SDS011;64046;51.978;5.934;2023-02-11T06:08:15;16.75;;;8.40;;
75358;SDS011;64046;51.978;5.934;2023-02-11T06:10:45;26.58;;;10.73;;
75358;SDS011;64046;51.978;5.934;2023-02-11T06:13:14;18.95;;;7.90;;
75358;SDS011;64046;51.978;5.934;2023-02-11T06:15:43;23.15;;;9.10;;
75358;SDS011;64046;51.978;5.934;2023-02-11T06:18:12;25.52;;;10.93;;
75358;SDS011;64046;51.978;5.934;2023-02-11T06:20:42;26.48;;;9.80;;
75358;SDS011;64046;51.978;5.934;2023-02-11T06:23:13;23.63;;;9.90;;
75358;SDS011;64046;51.978;5.934;2023-02-11T06:25:43;28.45;;;12.00;;
75358;SDS011;64046;51.978;5.934;2023-02-11T06:28:12;24.75;;;10.07;;
75358;SDS011;64046;51.978;5.934;2023-02-11T06:30:41;23.15;;;10.93;;
75358;SDS011;64046;51.978;5.934;2023-02-11T06:33:10;30.92;;;11.10;;
75358;SDS011;64046;51.978;5.934;2023-02-11T06:35:39;39.67;;;12.68;;
75358;SDS011;64046;51.978;5.934;2023-02-11T06:38:08;32.80;;;13.30;;
75358;SDS011;64046;51.978;5.934;2023-02-11T06:40:45;24.05;;;10.38;;
75358;SDS011;64046;51.978;5.934;2023-02-11T06:43:15;27.67;;;12.38;;
75358;SDS011;64046;51.978;5.934;2023-02-11T06:45:44;21.95;;;9.38;;
75358;SDS011;64046;51.978;5.934;2023-02-11T06:48:20;23.92;;;9.75;;
75358;SDS011;64046;51.978;5.934;2023-02-11T06:50:50;31.42;;;12.40;;
75358;SDS011;64046;51.978;5.934;2023-02-11T06:53:20;25.75;;;11.75;;
75358;SDS011;64046;51.978;5.934;2023-02-11T06:55:52;23.48;;;12.35;;
75358;SDS011;64046;51.978;5.934;2023-02-11T06:58:21;37.42;;;13.40;;
75358;SDS011;64046;51.978;5.934;2023-02-11T07:00:50;32.53;;;13.48;;
75358;SDS011;64046;51.978;5.934;2023-02-11T07:03:20;25.13;;;11.38;;
75358;SDS011;64046;51.978;5.934;2023-02-11T07:05:49;31.30;;;14.30;;
75358;SDS011;64046;51.978;5.934;2023-02-11T07:08:18;41.85;;;14.63;;
75358;SDS011;64046;51.978;5.934;2023-02-11T07:10:47;41.47;;;14.95;;
75358;SDS011;64046;51.978;5.934;2023-02-11T07:13:19;44.47;;;15.57;;
75358;SDS011;64046;51.978;5.934;2023-02-11T07:15:48;39.95;;;15.32;;
75358;SDS011;64046;51.978;5.934;2023-02-11T07:18:18;34.28;;;13.43;;
75358;SDS011;64046;51.978;5.934;2023-02-11T07:20:47;32.20;;;12.88;;
75358;SDS011;64046;51.978;5.934;2023-02-11T07:23:16;40.70;;;15.73;;
75358;SDS011;64046;51.978;5.934;2023-02-11T07:25:45;44.95;;;17.50;;
75358;SDS011;64046;51.978;5.934;2023-02-11T07:28:15;41.97;;;17.58;;
75358;SDS011;64046;51.978;5.934;2023-02-11T07:30:46;39.67;;;17.73;;
75358;SDS011;64046;51.978;5.934;2023-02-11T07:33:16;37.63;;;16.10;;
75358;SDS011;64046;51.978;5.934;2023-02-11T07:35:45;34.25;;;13.85;;
75358;SDS011;64046;51.978;5.934;2023-02-11T07:38:14;44.60;;;17.23;;
75358;SDS011;64046;51.978;5.934;2023-02-11T07:40:43;38.22;;;15.65;;
75358;SDS011;64046;51.978;5.934;2023-02-11T07:43:13;41.72;;;16.77;;
75358;SDS011;64046;51.978;5.934;2023-02-11T07:45:42;40.75;;;16.10;;
75358;SDS011;64046;51.978;5.934;2023-02-11T07:48:14;33.80;;;15.32;;
75358;SDS011;64046;51.978;5.934;2023-02-11T07:50:43;42.53;;;14.98;;
75358;SDS011;64046;51.978;5.934;2023-02-11T07:53:12;41.83;;;18.02;;
75358;SDS011;64046;51.978;5.934;2023-02-11T07:55:42;43.88;;;17.65;;
75358;SDS011;64046;51.978;5.934;2023-02-11T07:58:11;47.13;;;19.98;;
75358;SDS011;64046;51.978;5.934;2023-02-11T08:00:40;41.90;;;18.30;;
75358;SDS011;64046;51.978;5.934;2023-02-11T08:03:10;44.33;;;18.52;;
75358;SDS011;64046;51.978;5.934;2023-02-11T08:05:42;35.42;;;15.40;;
75358;SDS011;64046;51.978;5.934;2023-02-11T08:08:11;34.28;;;14.55;;
75358;SDS011;64046;51.978;5.934;2023-02-11T08:10:40;42.28;;;17.85;;
75358;SDS011;64046;51.978;5.934;2023-02-11T08:13:09;40.53;;;19.75;;
75358;SDS011;64046;51.978;5.934;2023-02-11T08:15:39;41.33;;;18.88;;
75358;SDS011;64046;51.978;5.934;2023-02-11T08:18:08;47.53;;;19.40;;
75358;SDS011;64046;51.978;5.934;2023-02-11T08:20:37;40.22;;;17.77;;
75358;SDS011;64046;51.978;5.934;2023-02-11T08:23:09;41.17;;;17.75;;
75358;SDS011;64046;51.978;5.934;2023-02-11T08:25:38;42.15;;;17.42;;
75358;SDS011;64046;51.978;5.934;2023-02-11T08:28:07;51.28;;;22.23;;
75358;SDS011;64046;51.978;5.934;2023-02-11T08:30:36;48.58;;;19.13;;
75358;SDS011;64046;51.978;5.934;2023-02-11T08:33:05;42.67;;;19.52;;
75358;SDS011;64046;51.978;5.934;2023-02-11T08:35:34;63.47;;;23.98;;
75358;SDS011;64046;51.978;5.934;2023-02-11T08:38:05;42.20;;;19.80;;
75358;SDS011;64046;51.978;5.934;2023-02-11T08:40:36;42.03;;;19.42;;
75358;SDS011;64046;51.978;5.934;2023-02-11T08:43:06;45.90;;;22.30;;
75358;SDS011;64046;51.978;5.934;2023-02-11T08:45:36;34.05;;;16.50;;
75358;SDS011;64046;51.978;5.934;2023-02-11T08:48:05;52.55;;;20.80;;
75358;SDS011;64046;51.978;5.934;2023-02-11T08:50:34;46.13;;;18.45;;
75358;SDS011;64046;51.978;5.934;2023-02-11T08:53:06;50.00;;;21.65;;
75358;SDS011;64046;51.978;5.934;2023-02-11T08:55:37;45.05;;;19.33;;
75358;SDS011;64046;51.978;5.934;2023-02-11T08:58:07;42.58;;;20.95;;
75358;SDS011;64046;51.978;5.934;2023-02-11T09:00:36;45.05;;;20.83;;
75358;SDS011;64046;51.978;5.934;2023-02-11T09:03:05;45.25;;;21.20;;
75358;SDS011;64046;51.978;5.934;2023-02-11T09:05:34;48.97;;;20.08;;
75358;SDS011;64046;51.978;5.934;2023-02-11T09:08:08;53.28;;;22.02;;
75358;SDS011;64046;51.978;5.934;2023-02-11T09:10:40;40.40;;;18.80;;
75358;SDS011;64046;51.978;5.934;2023-02-11T09:13:09;42.70;;;20.65;;
75358;SDS011;64046;51.978;5.934;2023-02-11T09:15:39;48.55;;;23.13;;
75358;SDS011;64046;51.978;5.934;2023-02-11T09:18:08;44.33;;;21.15;;
75358;SDS011;64046;51.978;5.934;2023-02-11T09:20:37;50.33;;;23.33;;
75358;SDS011;64046;51.978;5.934;2023-02-11T09:23:06;50.17;;;22.52;;
75358;SDS011;64046;51.978;5.934;2023-02-11T09:25:40;53.97;;;23.25;;
75358;SDS011;64046;51.978;5.934;2023-02-11T09:28:09;45.20;;;20.88;;
75358;SDS011;64046;51.978;5.934;2023-02-11T09:30:39;51.17;;;22.63;;
75358;SDS011;64046;51.978;5.934;2023-02-11T09:33:08;49.08;;;23.90;;
75358;SDS011;64046;51.978;5.934;2023-02-11T09:35:37;48.65;;;23.15;;
75358;SDS011;64046;51.978;5.934;2023-02-11T09:38:06;45.88;;;21.08;;
75358;SDS011;64046;51.978;5.934;2023-02-11T09:40:35;45.28;;;22.92;;
75358;SDS011;64046;51.978;5.934;2023-02-11T09:43:08;45.60;;;22.40;;
75358;SDS011;64046;51.978;5.934;2023-02-11T09:45:41;49.53;;;21.80;;
75358;SDS011;64046;51.978;5.934;2023-02-11T09:48:12;40.88;;;19.50;;
75358;SDS011;64046;51.978;5.934;2023-02-11T09:50:44;48.13;;;22.88;;
75358;SDS011;64046;51.978;5.934;2023-02-11T09:53:19;47.65;;;22.30;;
75358;SDS011;64046;51.978;5.934;2023-02-11T09:55:52;49.10;;;23.60;;
75358;SDS011;64046;51.978;5.934;2023-02-11T09:58:27;42.28;;;20.95;;
75358;SDS011;64046;51.978;5.934;2023-02-11T10:01:01;51.63;;;24.73;;
75358;SDS011;64046;51.978;5.934;2023-02-11T10:06:40;52.97;;;23.70;;
75358;SDS011;64046;51.978;5.934;2023-02-11T10:12:23;39.15;;;19.23;;
75358;SDS011;64046;51.978;5.934;2023-02-11T10:15:15;39.95;;;20.90;;
75358;SDS011;64046;51.978;5.934;2023-02-11T10:17:53;48.22;;;24.67;;
75358;SDS011;64046;51.978;5.934;2023-02-11T10:20:33;49.53;;;21.67;;
75358;SDS011;64046;51.978;5.934;2023-02-11T10:23:07;51.70;;;23.13;;
75358;SDS011;64046;51.978;5.934;2023-02-11T10:25:41;48.47;;;23.25;;
75358;SDS011;64046;51.978;5.934;2023-02-11T10:28:15;38.13;;;19.40;;
75358;SDS011;64046;51.978;5.934;2023-02-11T10:30:51;51.53;;;24.88;;
75358;SDS011;64046;51.978;5.934;2023-02-11T10:33:26;48.53;;;24.50;;
75358;SDS011;64046;51.978;5.934;2023-02-11T10:36:00;42.15;;;21.55;;
75358;SDS011;64046;51.978;5.934;2023-02-11T10:38:29;50.53;;;23.83;;
75358;SDS011;64046;51.978;5.934;2023-02-11T10:40:58;50.33;;;22.95;;
75358;SDS011;64046;51.978;5.934;2023-02-11T10:43:28;45.15;;;22.48;;
75358;SDS011;64046;51.978;5.934;2023-02-11T10:46:02;37.95;;;19.73;;
75358;SDS011;64046;51.978;5.934;2023-02-11T10:48:37;44.17;;;21.17;;
75358;SDS011;64046;51.978;5.934;2023-02-11T10:51:14;36.90;;;19.92;;
75358;SDS011;64046;51.978;5.934;2023-02-11T10:53:46;41.17;;;20.58;;
75358;SDS011;64046;51.978;5.934;2023-02-11T10:56:24;39.95;;;20.42;;
75358;SDS011;64046;51.978;5.934;2023-02-11T10:58:57;40.40;;;19.98;;
75358;SDS011;64046;51.978;5.934;2023-02-11T11:01:41;36.97;;;18.58;;
75358;SDS011;64046;51.978;5.934;2023-02-11T11:07:13;41.30;;;22.20;;
75358;SDS011;64046;51.978;5.934;2023-02-11T11:09:46;37.58;;;20.25;;
75358;SDS011;64046;51.978;5.934;2023-02-11T11:12:28;36.00;;;19.45;;
75358;SDS011;64046;51.978;5.934;2023-02-11T11:18:08;37.70;;;19.13;;
75358;SDS011;64046;51.978;5.934;2023-02-11T11:20:43;36.47;;;19.35;;
75358;SDS011;64046;51.978;5.934;2023-02-11T11:23:23;31.98;;;17.30;;
75358;SDS011;64046;51.978;5.934;2023-02-11T11:26:00;32.97;;;17.38;;
75358;SDS011;64046;51.978;5.934;2023-02-11T11:28:35;35.25;;;19.55;;
75358;SDS011;64046;51.978;5.934;2023-02-11T11:31:11;35.00;;;19.42;;
75358;SDS011;64046;51.978;5.934;2023-02-11T11:33:46;36.20;;;20.83;;
75358;SDS011;64046;51.978;5.934;2023-02-11T11:36:18;33.03;;;18.67;;
75358;SDS011;64046;51.978;5.934;2023-02-11T11:38:51;46.08;;;22.73;;
75358;SDS011;64046;51.978;5.934;2023-02-11T11:41:24;38.33;;;19.85;;
75358;SDS011;64046;51.978;5.934;2023-02-11T11:43:57;31.70;;;18.08;;
75358;SDS011;64046;51.978;5.934;2023-02-11T11:46:30;32.35;;;17.83;;
75358;SDS011;64046;51.978;5.934;2023-02-11T11:51:55;37.40;;;18.67;;
75358;SDS011;64046;51.978;5.934;2023-02-11T11:54:37;39.95;;;18.23;;
75358;SDS011;64046;51.978;5.934;2023-02-11T11:57:09;28.52;;;16.80;;
75358;SDS011;64046;51.978;5.934;2023-02-11T11:59:43;31.88;;;16.10;;
75358;SDS011;64046;51.978;5.934;2023-02-11T12:02:19;29.00;;;13.60;;
75358;SDS011;64046;51.978;5.934;2023-02-11T12:05:10;24.48;;;14.05;;
75358;SDS011;64046;51.978;5.934;2023-02-11T12:07:50;25.80;;;13.32;;
75358;SDS011;64046;51.978;5.934;2023-02-11T12:10:42;29.98;;;14.73;;
75358;SDS011;64046;51.978;5.934;2023-02-11T12:13:26;25.17;;;13.77;;
75358;SDS011;64046;51.978;5.934;2023-02-11T12:16:09;26.70;;;15.35;;
75358;SDS011;64046;51.978;5.934;2023-02-11T12:19:04;21.98;;;12.43;;
75358;SDS011;64046;51.978;5.934;2023-02-11T12:21:54;23.48;;;13.90;;
75358;SDS011;64046;51.978;5.934;2023-02-11T12:27:34;23.05;;;12.25;;
75358;SDS011;64046;51.978;5.934;2023-02-11T12:30:17;25.55;;;12.55;;
75358;SDS011;64046;51.978;5.934;2023-02-11T12:32:58;22.60;;;12.02;;
75358;SDS011;64046;51.978;5.934;2023-02-11T12:35:36;17.90;;;11.00;;
75358;SDS011;64046;51.978;5.934;2023-02-11T12:38:21;26.20;;;13.13;;
75358;SDS011;64046;51.978;5.934;2023-02-11T12:41:03;19.55;;;11.55;;
75358;SDS011;64046;51.978;5.934;2023-02-11T12:43:42;18.60;;;9.65;;
75358;SDS011;64046;51.978;5.934;2023-02-11T12:52:27;16.92;;;10.00;;
75358;SDS011;64046;51.978;5.934;2023-02-11T12:55:11;18.42;;;11.00;;
75358;SDS011;64046;51.978;5.934;2023-02-11T12:57:48;24.10;;;14.02;;
75358;SDS011;64046;51.978;5.934;2023-02-11T13:00:21;25.60;;;12.93;;
75358;SDS011;64046;51.978;5.934;2023-02-11T13:02:53;22.23;;;11.23;;
75358;SDS011;64046;51.978;5.934;2023-02-11T13:05:28;22.42;;;11.70;;
75358;SDS011;64046;51.978;5.934;2023-02-11T13:08:03;23.80;;;12.77;;
75358;SDS011;64046;51.978;5.934;2023-02-11T13:10:42;21.70;;;10.65;;
75358;SDS011;64046;51.978;5.934;2023-02-11T13:13:17;22.30;;;11.43;;
75358;SDS011;64046;51.978;5.934;2023-02-11T13:15:50;18.35;;;10.10;;
75358;SDS011;64046;51.978;5.934;2023-02-11T13:18:26;20.75;;;10.50;;
75358;SDS011;64046;51.978;5.934;2023-02-11T13:21:09;18.10;;;9.88;;
75358;SDS011;64046;51.978;5.934;2023-02-11T13:23:50;18.70;;;10.35;;
75358;SDS011;64046;51.978;5.934;2023-02-11T13:26:32;13.80;;;8.65;;
75358;SDS011;64046;51.978;5.934;2023-02-11T13:29:19;14.65;;;9.18;;
75358;SDS011;64046;51.978;5.934;2023-02-11T13:32:04;16.70;;;8.93;;
75358;SDS011;64046;51.978;5.934;2023-02-11T13:37:27;19.40;;;10.38;;
75358;SDS011;64046;51.978;5.934;2023-02-11T13:40:03;17.40;;;10.05;;
75358;SDS011;64046;51.978;5.934;2023-02-11T13:42:45;16.70;;;10.38;;
75358;SDS011;64046;51.978;5.934;2023-02-11T13:45:23;15.20;;;8.95;;
75358;SDS011;64046;51.978;5.934;2023-02-11T13:47:57;16.25;;;9.40;;
75358;SDS011;64046;51.978;5.934;2023-02-11T13:50:30;16.13;;;9.13;;
75358;SDS011;64046;51.978;5.934;2023-02-11T13:53:02;17.42;;;8.93;;
75358;SDS011;64046;51.978;5.934;2023-02-11T13:55:34;14.25;;;9.15;;
75358;SDS011;64046;51.978;5.934;2023-02-11T13:58:32;19.52;;;9.80;;
75358;SDS011;64046;51.978;5.934;2023-02-11T14:01:05;21.48;;;10.05;;
75358;SDS011;64046;51.978;5.934;2023-02-11T14:03:38;19.77;;;10.02;;
75358;SDS011;64046;51.978;5.934;2023-02-11T14:06:39;21.45;;;10.27;;
75358;SDS011;64046;51.978;5.934;2023-02-11T14:09:56;22.08;;;11.35;;
75358;SDS011;64046;51.978;5.934;2023-02-11T14:12:32;20.42;;;10.80;;
75358;SDS011;64046;51.978;5.934;2023-02-11T14:17:53;18.27;;;9.50;;
75358;SDS011;64046;51.978;5.934;2023-02-11T14:20:32;15.18;;;9.15;;
75358;SDS011;64046;51.978;5.934;2023-02-11T14:23:04;22.42;;;11.50;;
75358;SDS011;64046;51.978;5.934;2023-02-11T14:25:34;25.08;;;12.02;;
75358;SDS011;64046;51.978;5.934;2023-02-11T14:28:07;20.35;;;10.85;;
75358;SDS011;64046;51.978;5.934;2023-02-11T14:30:47;18.83;;;10.52;;
75358;SDS011;64046;51.978;5.934;2023-02-11T14:39:21;17.55;;;8.98;;
75358;SDS011;64046;51.978;5.934;2023-02-11T14:42:00;15.95;;;10.45;;
75358;SDS011;64046;51.978;5.934;2023-02-11T14:44:31;18.95;;;9.43;;
75358;SDS011;64046;51.978;5.934;2023-02-11T14:47:04;17.27;;;10.45;;
75358;SDS011;64046;51.978;5.934;2023-02-11T14:49:34;18.98;;;9.27;;
75358;SDS011;64046;51.978;5.934;2023-02-11T14:52:08;17.45;;;8.98;;
75358;SDS011;64046;51.978;5.934;2023-02-11T14:54:47;19.85;;;10.25;;
75358;SDS011;64046;51.978;5.934;2023-02-11T14:57:18;15.05;;;9.07;;
75358;SDS011;64046;51.978;5.934;2023-02-11T14:59:52;18.08;;;10.10;;
75358;SDS011;64046;51.978;5.934;2023-02-11T15:02:27;17.48;;;9.38;;
75358;SDS011;64046;51.978;5.934;2023-02-11T15:07:46;16.13;;;9.90;;
75358;SDS011;64046;51.978;5.934;2023-02-11T15:10:18;14.48;;;8.55;;
75358;SDS011;64046;51.978;5.934;2023-02-11T15:12:54;15.10;;;9.52;;
75358;SDS011;64046;51.978;5.934;2023-02-11T15:15:24;18.00;;;10.57;;
75358;SDS011;64046;51.978;5.934;2023-02-11T15:17:57;16.08;;;9.45;;
75358;SDS011;64046;51.978;5.934;2023-02-11T15:20:30;17.67;;;11.02;;
75358;SDS011;64046;51.978;5.934;2023-02-11T15:23:02;17.98;;;10.40;;
75358;SDS011;64046;51.978;5.934;2023-02-11T15:25:41;16.30;;;8.93;;
75358;SDS011;64046;51.978;5.934;2023-02-11T15:28:18;17.75;;;10.40;;
75358;SDS011;64046;51.978;5.934;2023-02-11T15:30:55;17.60;;;9.82;;
75358;SDS011;64046;51.978;5.934;2023-02-11T15:33:28;14.68;;;8.90;;
75358;SDS011;64046;51.978;5.934;2023-02-11T15:35:59;14.85;;;9.35;;
75358;SDS011;64046;51.978;5.934;2023-02-11T15:38:30;18.00;;;9.82;;
75358;SDS011;64046;51.978;5.934;2023-02-11T15:41:00;15.57;;;8.18;;
75358;SDS011;64046;51.978;5.934;2023-02-11T15:43:42;14.27;;;8.20;;
75358;SDS011;64046;51.978;5.934;2023-02-11T15:46:13;13.70;;;8.35;;